Time;durP1;ratioP1;P1;durP2;ratioP2;P2;SDS_P1;SDS_P2;PMS_P1;PMS_P2;Temp;Humidity;BMP_temperature;BMP_pressure;BME280_temperature;BME280_humidity;BME280_pressure;Samples;Min_cycle;Max_cycle;Signal;HPM_P1;HPM_P2
2023/05/10 00:01:37;;;;;;;;;2.33;2.00;;;;;14.18;71.03;101124.25;5077366;27;45482;-73
2023/05/10 00:04:03;;;;;;;;;3.67;2.00;;;;;14.21;71.05;101125.22;5072720;27;46300;-73
2023/05/10 00:06:29;;;;;;;;;2.00;1.33;;;;;14.21;70.53;101119.09;5071974;28;45429;-71
2023/05/10 00:08:55;;;;;;;;;3.00;1.67;;;;;14.29;70.52;101115.78;5077343;28;46088;-72
2023/05/10 00:11:20;;;;;;;;;1.00;1.00;;;;;14.34;70.46;101123.75;5076209;28;45369;-71
2023/05/10 00:13:47;;;;;;;;;2.67;1.67;;;;;14.34;70.88;101121.13;5077387;28;45465;-74
2023/05/10 00:16:12;;;;;;;;;3.00;2.00;;;;;14.29;70.45;101117.53;5077324;28;45339;-73
2023/05/10 00:18:38;;;;;;;;;3.33;2.00;;;;;14.26;70.35;101113.06;5074631;28;47287;-72
2023/05/10 00:21:04;;;;;;;;;2.00;1.67;;;;;14.33;70.29;101127.25;5093056;27;45292;-73
2023/05/10 00:23:30;;;;;;;;;5.00;2.67;;;;;14.33;70.87;101128.13;5077237;28;45333;-70
2023/05/10 00:25:56;;;;;;;;;3.00;1.33;;;;;14.17;70.36;101109.34;5079597;27;45651;-74
2023/05/10 00:28:21;;;;;;;;;3.00;2.00;;;;;14.12;70.68;101111.84;5076736;28;45714;-74
2023/05/10 00:30:47;;;;;;;;;3.00;2.00;;;;;14.14;71.22;101118.03;5075330;27;45583;-74
2023/05/10 00:33:13;;;;;;;;;4.00;2.00;;;;;13.99;71.38;101101.91;5073556;28;45516;-74
2023/05/10 00:35:38;;;;;;;;;4.33;2.00;;;;;13.99;72.01;101115.03;5077466;27;45489;-70
2023/05/10 00:38:04;;;;;;;;;2.00;1.67;;;;;13.79;71.59;101080.41;5077092;28;45516;-71
2023/05/10 00:40:30;;;;;;;;;2.00;2.00;;;;;13.89;71.99;101106.03;5076620;27;45570;-72
2023/05/10 00:42:57;;;;;;;;;2.67;2.33;;;;;13.85;71.77;101110.31;5075516;28;45393;-73
2023/05/10 00:45:23;;;;;;;;;2.33;2.33;;;;;13.71;72.41;101088.06;5076748;27;45547;-71
2023/05/10 00:47:49;;;;;;;;;3.00;2.00;;;;;13.75;72.28;101099.50;5077040;27;46050;-71
2023/05/10 00:50:15;;;;;;;;;3.00;2.67;;;;;13.60;72.56;101077.28;5076228;27;45459;-71
2023/05/10 00:52:42;;;;;;;;;3.00;2.00;;;;;13.61;72.21;101094.81;5103313;27;45442;-73
2023/05/10 00:55:10;;;;;;;;;1.00;1.00;;;;;13.60;71.81;101086.91;5076976;28;45509;-73
2023/05/10 00:57:35;;;;;;;;;2.67;2.00;;;;;13.57;72.19;101090.34;5076870;28;45419;-73
2023/05/10 01:00:03;;;;;;;;;3.67;2.00;;;;;13.53;72.01;101086.72;5079552;27;45433;-72
2023/05/10 01:02:28;;;;;;;;;2.00;2.00;;;;;13.61;72.46;101093.91;5079047;28;45401;-70
2023/05/10 01:04:55;;;;;;;;;4.67;2.67;;;;;13.55;72.39;101083.25;5076665;28;45703;-70
2023/05/10 01:07:23;;;;;;;;;2.67;2.00;;;;;13.55;72.24;101072.75;5073892;28;46227;-74
2023/05/10 01:09:49;;;;;;;;;1.67;1.00;;;;;13.61;72.16;101081.69;5076734;27;45958;-70
2023/05/10 01:12:14;;;;;;;;;3.33;2.00;;;;;13.48;71.71;101048.97;5077065;27;45472;-71
2023/05/10 01:14:40;;;;;;;;;2.00;2.00;;;;;13.57;71.86;101066.72;5076257;28;45386;-71
2023/05/10 01:17:07;;;;;;;;;2.00;1.00;;;;;13.63;71.98;101077.38;5076684;27;45996;-73
2023/05/10 01:19:36;;;;;;;;;4.00;2.00;;;;;13.68;71.89;101072.22;5076713;27;45317;-74
2023/05/10 01:22:13;;;;;;;;;3.00;2.00;;;;;13.67;72.00;101084.47;5076716;28;45499;-72
2023/05/10 01:25:00;;;;;;;;;1.00;1.00;;;;;13.64;71.99;101075.63;5093523;27;45682;-70
2023/05/10 01:28:10;;;;;;;;;1.33;1.00;;;;;13.61;72.25;101079.06;5075887;28;46553;-70
2023/05/10 01:30:57;;;;;;;;;3.00;1.67;;;;;13.57;72.80;101082.47;5053385;28;45463;-72
2023/05/10 01:33:28;;;;;;;;;1.33;1.00;;;;;13.56;71.88;101082.41;5071772;28;45461;-69
2023/05/10 01:36:09;;;;;;;;;3.67;2.00;;;;;13.56;71.83;101077.16;5075586;27;45546;-69
2023/05/10 01:38:50;;;;;;;;;1.33;0.33;;;;;13.52;72.10;101079.69;5075921;27;45389;-70
2023/05/10 01:41:21;;;;;;;;;2.00;2.00;;;;;13.47;72.18;101083.94;5071736;28;45435;-70
2023/05/10 01:44:14;;;;;;;;;1.00;1.00;;;;;13.41;72.11;101088.13;5078715;27;45467;-69
2023/05/10 01:46:40;;;;;;;;;2.00;1.67;;;;;13.30;71.80;101067.72;5076044;28;45346;-71
2023/05/10 01:49:15;;;;;;;;;2.00;1.33;;;;;13.32;72.29;101066.03;5079660;28;45517;-71
2023/05/10 01:51:47;;;;;;;;;2.33;1.00;;;;;13.39;71.87;101067.13;5073219;28;45394;-72
2023/05/10 01:54:17;;;;;;;;;2.67;1.00;;;;;13.30;71.66;101054.63;5079349;27;45460;-71
2023/05/10 01:56:45;;;;;;;;;1.67;1.67;;;;;13.25;71.96;101064.09;5080075;28;45478;-71
2023/05/10 01:59:18;;;;;;;;;2.00;1.00;;;;;13.18;72.21;101059.50;5079673;28;45690;-71
2023/05/10 02:01:46;;;;;;;;;2.67;1.00;;;;;13.20;72.26;101073.56;5108618;27;45388;-70
2023/05/10 02:04:16;;;;;;;;;2.00;0.67;;;;;13.04;72.62;101064.38;5078154;28;45425;-70
2023/05/10 02:06:45;;;;;;;;;1.00;1.00;;;;;13.04;72.86;101076.59;5079560;28;45385;-72
2023/05/10 02:09:11;;;;;;;;;2.00;1.00;;;;;13.04;72.71;101092.34;5078990;28;47251;-71
2023/05/10 02:11:43;;;;;;;;;1.00;0.00;;;;;12.77;72.71;101034.72;5079696;28;45534;-69
2023/05/10 02:14:11;;;;;;;;;2.00;1.00;;;;;12.96;73.06;101052.78;5076362;28;45816;-74
2023/05/10 02:16:38;;;;;;;;;2.67;2.00;;;;;13.13;72.72;101080.38;5095092;27;46231;-71
2023/05/10 02:19:05;;;;;;;;;1.00;1.00;;;;;13.12;73.03;101067.22;5078916;27;45455;-71
2023/05/10 02:21:32;;;;;;;;;1.00;1.00;;;;;13.21;72.87;101075.34;5078229;28;45510;-70
2023/05/10 02:24:01;;;;;;;;;2.00;1.33;;;;;13.16;73.15;101070.81;5079281;28;45676;-73
2023/05/10 02:26:27;;;;;;;;;3.00;2.00;;;;;13.02;73.32;101042.44;5078827;28;45805;-73
2023/05/10 02:28:56;;;;;;;;;3.00;1.33;;;;;13.10;73.93;101069.78;5078310;27;45480;-70
2023/05/10 02:31:22;;;;;;;;;2.00;2.00;;;;;13.02;73.43;101052.94;5079025;28;45366;-71
2023/05/10 02:33:49;;;;;;;;;1.00;1.00;;;;;13.03;73.39;101051.19;5079271;28;45537;-72
2023/05/10 02:36:17;;;;;;;;;3.33;1.33;;;;;12.95;73.63;101043.09;5077758;28;45442;-70
2023/05/10 02:38:45;;;;;;;;;2.00;1.33;;;;;13.00;74.25;101070.38;5079145;28;46043;-71
2023/05/10 02:41:12;;;;;;;;;1.00;1.00;;;;;12.60;74.24;101010.66;5078696;28;45563;-72
2023/05/10 02:43:40;;;;;;;;;2.00;1.67;;;;;12.81;74.21;101042.75;5080029;28;45499;-71
2023/05/10 02:46:08;;;;;;;;;1.00;0.67;;;;;12.73;74.07;101039.91;5077747;28;45535;-70
2023/05/10 02:48:34;;;;;;;;;1.00;1.00;;;;;12.86;73.72;101063.84;5079167;28;46070;-70
2023/05/10 02:51:05;;;;;;;;;2.00;1.00;;;;;12.91;73.52;101062.22;5078713;27;45488;-72
2023/05/10 02:53:33;;;;;;;;;1.67;1.00;;;;;12.58;74.15;101005.38;5058718;28;45508;-72
2023/05/10 02:56:15;;;;;;;;;1.67;1.00;;;;;12.86;74.27;101058.59;5057864;28;45586;-73
2023/05/10 02:58:40;;;;;;;;;3.67;1.00;;;;;12.74;74.83;101048.66;5073871;28;45502;-72
2023/05/10 03:01:07;;;;;;;;;2.00;1.00;;;;;12.61;75.17;101039.53;5078706;28;45369;-72
2023/05/10 03:03:33;;;;;;;;;1.00;1.00;;;;;12.64;74.60;101054.47;5076563;28;45519;-72
2023/05/10 03:05:58;;;;;;;;;1.00;1.00;;;;;12.62;75.26;101056.16;5076902;28;45481;-72
2023/05/10 03:08:24;;;;;;;;;4.33;1.00;;;;;12.46;75.69;101031.22;5093018;27;45696;-71
2023/05/10 03:10:56;;;;;;;;;3.00;1.00;;;;;12.56;75.88;101059.47;5079159;27;45258;-72
2023/05/10 03:14:00;;;;;;;;;1.00;0.00;;;;;12.40;75.89;101033.66;5078826;28;45440;-72
2023/05/10 03:16:35;;;;;;;;;2.00;1.00;;;;;12.47;75.49;101044.38;5042856;28;45380;-73
2023/05/10 03:19:19;;;;;;;;;1.00;1.00;;;;;12.44;75.03;101041.66;5078669;28;46363;-73
2023/05/10 03:21:51;;;;;;;;;2.00;2.00;;;;;12.32;74.92;101028.19;5079199;28;45485;-72
2023/05/10 03:24:20;;;;;;;;;1.67;1.00;;;;;12.23;75.02;101015.66;5078560;28;45427;-72
2023/05/10 03:26:46;;;;;;;;;0.33;0.33;;;;;12.21;75.75;101012.13;5078680;28;45471;-72
2023/05/10 03:29:14;;;;;;;;;1.33;1.00;;;;;12.17;75.78;101022.47;5078842;28;46238;-72
2023/05/10 03:31:40;;;;;;;;;2.33;0.00;;;;;12.15;76.04;101030.25;5078590;28;45387;-73
2023/05/10 03:34:06;;;;;;;;;0.00;0.00;;;;;12.10;75.70;101024.03;5074673;27;45489;-73
2023/05/10 03:36:32;;;;;;;;;3.00;1.00;;;;;12.03;76.47;101027.28;5091271;27;45456;-73
2023/05/10 03:38:58;;;;;;;;;1.67;0.00;;;;;11.87;76.29;101011.03;5069317;28;45328;-73
2023/05/10 03:41:24;;;;;;;;;2.00;1.00;;;;;11.91;76.18;101020.78;5078103;27;45242;-70
2023/05/10 03:43:50;;;;;;;;;1.00;0.00;;;;;11.93;75.93;101020.84;5063138;28;45455;-72
2023/05/10 03:46:15;;;;;;;;;1.00;0.67;;;;;11.87;75.97;101011.03;5077240;28;45429;-70
2023/05/10 03:48:41;;;;;;;;;0.00;0.00;;;;;11.97;75.94;101019.22;5078104;28;46161;-72
2023/05/10 03:51:06;;;;;;;;;1.00;1.00;;;;;12.08;75.94;101037.06;5076361;28;45366;-73
2023/05/10 03:53:32;;;;;;;;;1.00;0.00;;;;;12.03;75.24;101022.03;5077203;28;45540;-73
2023/05/10 03:55:57;;;;;;;;;0.67;0.00;;;;;11.97;75.08;101009.63;5078709;28;45547;-72
2023/05/10 03:58:23;;;;;;;;;1.75;0.25;;;;;11.93;75.66;101021.72;5077765;28;45564;-72
2023/05/10 04:00:48;;;;;;;;;1.33;1.00;;;;;11.84;75.47;101025.78;5077688;28;45452;-72
2023/05/10 04:03:14;;;;;;;;;2.00;1.00;;;;;11.89;75.80;101048.66;5077239;28;45414;-73
2023/05/10 04:05:40;;;;;;;;;1.25;1.00;;;;;11.82;76.13;101036.19;5078254;27;45587;-70
2023/05/10 04:08:06;;;;;;;;;1.75;0.75;;;;;11.80;75.91;101029.09;5078416;28;45818;-72
2023/05/10 04:10:32;;;;;;;;;2.00;1.00;;;;;11.96;76.16;101039.28;5061549;28;45384;-72
2023/05/10 04:12:57;;;;;;;;;1.25;0.50;;;;;11.42;75.82;100931.91;5070052;28;45225;-71
2023/05/10 04:15:23;;;;;;;;;3.00;2.25;;;;;12.04;75.97;101031.69;5077958;27;45227;-71
2023/05/10 04:17:50;;;;;;;;;1.00;1.00;;;;;11.91;75.83;101017.28;5077412;28;46190;-72
2023/05/10 04:20:15;;;;;;;;;0.75;0.00;;;;;11.80;76.37;101010.78;5076547;28;45513;-71
2023/05/10 04:22:41;;;;;;;;;1.00;1.00;;;;;11.82;75.71;101019.59;5077786;28;45441;-72
2023/05/10 04:25:07;;;;;;;;;4.25;2.00;;;;;11.84;75.82;101020.53;5077426;28;45353;-72
2023/05/10 04:27:33;;;;;;;;;2.00;2.00;;;;;11.77;75.62;101018.53;5077252;28;45656;-71
2023/05/10 04:29:58;;;;;;;;;1.25;1.00;;;;;11.72;75.83;101016.66;5077240;27;45708;-72
2023/05/10 04:32:24;;;;;;;;;1.00;0.00;;;;;11.73;75.89;101017.56;5077633;28;45491;-70
2023/05/10 04:34:51;;;;;;;;;2.00;1.75;;;;;11.80;75.73;101022.16;5077317;28;45437;-70
2023/05/10 04:37:16;;;;;;;;;1.75;1.00;;;;;11.74;75.92;101020.22;5076704;28;45383;-72
2023/05/10 04:39:42;;;;;;;;;1.00;0.00;;;;;11.53;76.03;101012.53;5090092;27;45507;-73
2023/05/10 04:42:08;;;;;;;;;1.00;0.75;;;;;11.41;76.45;100993.81;5076835;28;45640;-70
2023/05/10 04:44:33;;;;;;;;;1.00;1.00;;;;;11.62;75.75;101040.75;5077339;27;45461;-72
2023/05/10 04:46:59;;;;;;;;;2.00;1.00;;;;;11.44;76.97;101006.09;5076280;27;45687;-73
2023/05/10 04:49:25;;;;;;;;;1.00;1.00;;;;;11.46;76.81;101013.19;5082382;27;45921;-72
2023/05/10 04:51:50;;;;;;;;;1.25;1.00;;;;;11.58;76.80;101032.75;5077332;27;45450;-72
2023/05/10 04:54:16;;;;;;;;;0.75;0.75;;;;;11.47;76.80;101003.59;5077277;28;45283;-72
2023/05/10 04:56:41;;;;;;;;;1.00;1.00;;;;;11.61;76.63;101014.53;5076286;28;45672;-72
2023/05/10 04:59:07;;;;;;;;;1.00;1.00;;;;;11.81;76.19;101008.22;5076466;28;45738;-70
2023/05/10 05:01:33;;;;;;;;;4.75;2.00;;;;;11.99;75.93;101014.91;5074935;27;45507;-72
2023/05/10 05:03:59;;;;;;;;;2.00;1.50;;;;;12.18;75.42;101013.78;5076245;28;45437;-69
2023/05/10 05:06:25;;;;;;;;;3.25;1.00;;;;;12.43;74.94;101028.50;5076252;28;45745;-72
2023/05/10 05:08:51;;;;;;;;;2.00;1.00;;;;;12.35;74.97;100994.19;5076643;27;45484;-72
2023/05/10 05:11:17;;;;;;;;;3.50;2.00;;;;;12.70;74.98;101031.94;5075965;27;45337;-73
2023/05/10 05:13:43;;;;;;;;;1.25;1.00;;;;;12.83;74.96;101030.56;5076040;27;45362;-72
2023/05/10 05:16:08;;;;;;;;;1.00;1.00;;;;;12.76;74.30;101006.75;5087967;27;46197;-73
2023/05/10 05:18:34;;;;;;;;;0.67;0.00;;;;;12.90;74.74;101023.75;5071187;28;45516;-70
2023/05/10 05:21:00;;;;;;;;;0.67;0.67;;;;;12.89;74.13;101016.72;5082913;27;45456;-72
2023/05/10 05:23:26;;;;;;;;;2.50;1.25;;;;;12.91;74.33;101022.91;5076674;27;45433;-72
2023/05/10 05:25:52;;;;;;;;;3.00;2.00;;;;;12.90;74.69;101015.88;5073831;28;45514;-72
2023/05/10 05:28:19;;;;;;;;;6.50;5.25;;;;;12.94;74.02;101018.63;5075946;27;45530;-71
2023/05/10 05:30:45;;;;;;;;;3.25;2.25;;;;;12.91;74.01;101026.44;5074247;28;45635;-70
2023/05/10 05:33:11;;;;;;;;;5.00;5.00;;;;;12.81;73.98;101011.28;5076136;27;45582;-72
2023/05/10 05:35:40;;;;;;;;;4.00;4.00;;;;;12.92;74.47;101035.19;5074860;27;45806;-71
2023/05/10 05:38:06;;;;;;;;;1.00;1.00;;;;;12.81;74.15;101016.53;5074056;27;45490;-71
2023/05/10 05:40:31;;;;;;;;;3.25;2.25;;;;;12.79;74.54;101007.69;5074897;27;45432;-71
2023/05/10 05:42:57;;;;;;;;;1.00;1.00;;;;;13.00;73.78;101027.53;5075299;27;45647;-73
2023/05/10 05:45:22;;;;;;;;;3.00;3.00;;;;;13.23;74.32;101050.03;5074997;28;46505;-73
2023/05/10 05:47:48;;;;;;;;;2.75;2.75;;;;;13.45;73.53;101058.50;5074937;28;45552;-73
2023/05/10 05:50:13;;;;;;;;;4.00;2.67;;;;;13.56;72.64;101059.66;5075589;28;45500;-74
2023/05/10 05:52:39;;;;;;;;;4.50;3.50;;;;;13.38;73.21;101046.94;5075859;27;45534;-73
2023/05/10 05:55:05;;;;;;;;;2.00;2.00;;;;;13.36;72.63;101053.03;5108442;27;45513;-74
2023/05/10 05:57:30;;;;;;;;;2.00;1.33;;;;;13.41;72.84;101064.50;5073950;28;45393;-74
2023/05/10 05:59:56;;;;;;;;;1.00;1.00;;;;;13.32;72.65;101060.78;5075714;27;45309;-73
2023/05/10 06:02:21;;;;;;;;;1.00;1.00;;;;;13.36;72.73;101060.88;5057260;28;45449;-74
2023/05/10 06:04:47;;;;;;;;;0.33;0.00;;;;;13.29;72.52;101044.97;5087527;27;47163;-73
2023/05/10 06:07:12;;;;;;;;;2.00;1.00;;;;;13.39;72.51;101056.63;5074715;28;45584;-73
2023/05/10 06:09:38;;;;;;;;;2.33;1.00;;;;;13.36;72.23;101039.91;5075888;28;45644;-74
2023/05/10 06:12:04;;;;;;;;;1.00;1.00;;;;;13.55;72.21;101070.13;5061635;28;45669;-73
2023/05/10 06:14:30;;;;;;;;;0.33;0.33;;;;;13.67;72.07;101071.34;5088982;27;45442;-73
2023/05/10 06:16:55;;;;;;;;;1.00;1.00;;;;;13.64;72.29;101060.75;5076096;28;45397;-73
2023/05/10 06:19:21;;;;;;;;;2.00;1.00;;;;;13.91;71.59;101083.31;5074454;28;45383;-73
2023/05/10 06:21:46;;;;;;;;;1.67;1.00;;;;;14.32;70.01;101079.06;5076615;28;45391;-73
2023/05/10 06:24:12;;;;;;;;;0.67;0.00;;;;;14.79;68.71;101075.75;5075858;28;45436;-72
2023/05/10 06:26:37;;;;;;;;;2.33;1.33;;;;;16.60;66.75;101075.41;5074373;28;45487;-73
2023/05/10 06:29:03;;;;;;;;;1.67;1.00;;;;;18.22;59.00;101027.81;5075524;28;45490;-74
2023/05/10 06:31:28;;;;;;;;;2.00;1.00;;;;;17.46;59.40;101055.31;5079743;28;45445;-74
2023/05/10 06:33:54;;;;;;;;;2.00;1.00;;;;;17.19;60.96;101062.94;5079126;28;45388;-71
2023/05/10 06:36:19;;;;;;;;;1.00;0.00;;;;;16.87;61.45;101064.38;5079177;28;45516;-73
2023/05/10 06:38:45;;;;;;;;;1.00;1.00;;;;;16.63;61.63;101062.28;5077585;28;45295;-74
2023/05/10 06:41:11;;;;;;;;;1.00;1.00;;;;;16.63;61.87;101077.19;5079521;28;45352;-74
2023/05/10 06:43:39;;;;;;;;;1.00;1.00;;;;;16.87;61.68;101063.47;5078444;28;46123;-74
2023/05/10 06:46:05;;;;;;;;;4.00;2.00;;;;;20.01;57.24;101068.06;5078900;28;45900;-74
2023/05/10 06:48:30;;;;;;;;;2.00;1.00;;;;;20.73;52.43;101073.28;5077414;28;45534;-73
2023/05/10 06:50:56;;;;;;;;;0.67;0.00;;;;;19.96;52.61;101065.44;5078048;28;45472;-73
2023/05/10 06:53:22;;;;;;;;;2.00;0.33;;;;;19.50;52.23;101073.34;5078720;28;46468;-74
2023/05/10 06:55:49;;;;;;;;;1.00;1.00;;;;;23.14;47.64;101081.09;5079256;28;45323;-74
2023/05/10 06:58:14;;;;;;;;;1.00;1.00;;;;;25.70;44.08;101060.31;5078749;27;45502;-74
2023/05/10 07:00:42;;;;;;;;;0.33;0.33;;;;;27.96;39.69;101062.75;5078768;28;45606;-74
2023/05/10 07:03:08;;;;;;;;;0.67;0.67;;;;;26.23;39.64;101071.50;5076231;28;45527;-74
2023/05/10 07:05:33;;;;;;;;;2.67;1.00;;;;;25.05;42.27;101083.19;5078888;28;45506;-75
2023/05/10 07:07:59;;;;;;;;;1.67;1.00;;;;;26.53;41.18;101069.75;5078742;28;45503;-74
2023/05/10 07:10:24;;;;;;;;;2.00;1.00;;;;;28.44;38.04;101060.19;5077899;28;45574;-73
2023/05/10 07:12:50;;;;;;;;;1.00;0.00;;;;;29.47;34.52;101054.50;5078267;28;45503;-74
2023/05/10 07:15:15;;;;;;;;;1.33;0.00;;;;;30.70;32.32;101065.41;5077845;28;45535;-74
2023/05/10 07:17:41;;;;;;;;;0.67;0.00;;;;;29.83;31.91;101064.69;5078941;27;45500;-74
2023/05/10 07:20:07;;;;;;;;;0.00;0.00;;;;;29.07;34.73;101074.88;5078606;28;45686;-74
2023/05/10 07:22:33;;;;;;;;;1.00;1.00;;;;;30.67;31.56;101064.66;5078623;28;45516;-75
2023/05/10 07:24:58;;;;;;;;;1.00;0.00;;;;;32.19;31.41;101068.13;5078400;28;45468;-73
2023/05/10 07:27:24;;;;;;;;;2.00;1.33;;;;;33.41;29.31;101070.50;5078851;28;45433;-72
2023/05/10 07:29:49;;;;;;;;;0.00;0.00;;;;;34.38;27.61;101063.91;5073513;28;45547;-72
2023/05/10 07:32:15;;;;;;;;;1.00;0.00;;;;;32.84;29.22;101048.44;5069803;28;46167;-73
2023/05/10 07:34:41;;;;;;;;;0.00;0.00;;;;;31.89;30.49;101071.41;5076668;27;45590;-72
2023/05/10 07:37:07;;;;;;;;;1.00;0.33;;;;;30.45;30.48;101057.53;5076383;27;45452;-71
2023/05/10 07:39:32;;;;;;;;;0.67;0.67;;;;;29.29;32.10;101077.63;5071698;28;45528;-72
2023/05/10 07:41:58;;;;;;;;;3.67;3.67;;;;;27.88;35.27;101069.31;5075968;28;45477;-72
2023/05/10 07:44:24;;;;;;;;;1.00;0.00;;;;;27.06;36.60;101070.94;5077784;27;45376;-71
2023/05/10 07:46:49;;;;;;;;;1.00;0.67;;;;;26.60;37.13;101062.50;5077207;27;45603;-72
2023/05/10 07:49:15;;;;;;;;;0.67;0.67;;;;;26.13;37.65;101072.66;5078268;27;45654;-75
2023/05/10 07:51:42;;;;;;;;;1.00;1.00;;;;;25.25;38.23;101084.56;5076530;27;46555;-74
2023/05/10 07:54:07;;;;;;;;;1.67;1.00;;;;;24.51;40.14;101070.94;5092584;27;45389;-72
2023/05/10 07:56:33;;;;;;;;;2.00;2.00;;;;;24.06;41.59;101067.28;5076557;28;45333;-73
2023/05/10 07:59:00;;;;;;;;;1.00;1.00;;;;;23.79;42.53;101074.84;5077648;28;45516;-73
2023/05/10 08:01:26;;;;;;;;;1.00;0.33;;;;;24.10;41.55;101058.31;5075357;27;45250;-72
2023/05/10 08:03:53;;;;;;;;;4.00;1.00;;;;;24.54;40.90;101052.16;5075353;28;45506;-74
2023/05/10 08:06:19;;;;;;;;;0.33;0.00;;;;;24.07;41.84;101064.56;5077081;28;45487;-73
2023/05/10 08:08:49;;;;;;;;;29.00;25.33;;;;;23.52;43.38;101073.47;5076396;28;45476;-71
2023/05/10 08:11:17;;;;;;;;;10.00;8.00;;;;;23.14;44.38;101081.09;5058912;28;47278;-74
2023/05/10 08:13:44;;;;;;;;;2.67;1.00;;;;;22.80;44.17;101069.94;5077518;28;45634;-73
2023/05/10 08:16:09;;;;;;;;;1.00;1.00;;;;;22.67;44.48;101069.22;5076404;28;45549;-73
2023/05/10 08:18:35;;;;;;;;;1.00;0.00;;;;;22.82;44.76;101069.03;5077565;28;45546;-72
2023/05/10 08:21:00;;;;;;;;;1.00;1.00;;;;;22.92;44.55;101063.56;5077885;28;45333;-71
2023/05/10 08:23:26;;;;;;;;;3.00;1.33;;;;;22.88;44.99;101072.50;5077192;28;45528;-73
2023/05/10 08:25:52;;;;;;;;;2.00;1.33;;;;;22.56;45.36;101073.78;5077431;28;45589;-72
2023/05/10 08:28:17;;;;;;;;;1.00;1.00;;;;;22.37;45.29;101081.09;5077275;28;45388;-72
2023/05/10 08:30:43;;;;;;;;;2.67;1.67;;;;;21.90;46.74;101074.41;5074660;28;47889;-71
2023/05/10 08:33:08;;;;;;;;;1.00;1.00;;;;;21.41;48.26;101076.50;5075931;27;45509;-71
2023/05/10 08:35:34;;;;;;;;;1.67;0.67;;;;;21.11;49.63;101080.22;5072460;28;45385;-73
2023/05/10 08:38:00;;;;;;;;;1.00;0.00;;;;;21.08;49.93;101079.34;5066476;28;45516;-72
2023/05/10 08:40:26;;;;;;;;;2.00;1.00;;;;;21.30;49.43;101085.41;5077187;28;45474;-71
2023/05/10 08:43:09;;;;;;;;;1.00;1.00;;;;;21.63;48.62;101077.25;5076585;27;45367;-71
2023/05/10 08:45:40;;;;;;;;;2.00;1.00;;;;;22.01;48.14;101060.09;5076807;28;45477;-73
2023/05/10 08:48:07;;;;;;;;;1.00;0.33;;;;;22.61;44.93;101074.63;5076391;28;45370;-72
2023/05/10 08:50:38;;;;;;;;;0.00;0.00;;;;;22.64;46.47;101082.56;5076181;27;46100;-70
2023/05/10 08:53:06;;;;;;;;;3.00;2.00;;;;;22.92;46.08;101064.47;5075059;28;45447;-70
2023/05/10 08:55:33;;;;;;;;;3.00;1.00;;;;;23.28;46.19;101072.00;5076743;28;45313;-70
2023/05/10 08:57:59;;;;;;;;;1.00;1.00;;;;;23.38;43.76;101058.53;5077200;28;45526;-73
2023/05/10 09:00:26;;;;;;;;;0.00;0.00;;;;;23.57;44.03;101053.78;5075669;28;45391;-71
2023/05/10 09:02:52;;;;;;;;;1.00;1.00;;;;;23.77;42.55;101048.16;5076554;28;45497;-72
2023/05/10 09:05:17;;;;;;;;;2.00;1.00;;;;;23.62;41.96;101051.94;5076213;28;45441;-71
2023/05/10 09:07:44;;;;;;;;;1.00;0.00;;;;;24.35;42.80;101064.97;5077198;28;45438;-72
2023/05/10 09:10:11;;;;;;;;;1.00;0.00;;;;;24.60;41.58;101054.69;5068178;28;45765;-72
2023/05/10 09:12:37;;;;;;;;;2.00;2.00;;;;;25.54;38.71;101041.09;5067194;28;45490;-71
2023/05/10 09:15:04;;;;;;;;;1.00;1.00;;;;;25.33;39.51;101037.16;5076033;27;45492;-71
2023/05/10 09:17:31;;;;;;;;;0.33;0.33;;;;;25.10;39.21;101054.53;5075468;28;45527;-73
2023/05/10 09:20:04;;;;;;;;;2.00;1.00;;;;;24.51;38.27;101060.25;5075533;28;46169;-73
2023/05/10 09:22:30;;;;;;;;;1.00;0.00;;;;;23.93;39.77;101061.25;5076038;28;45524;-74
2023/05/10 09:25:16;;;;;;;;;0.00;0.00;;;;;23.56;39.99;101065.38;5075349;28;45479;-73
2023/05/10 09:27:46;;;;;;;;;1.00;0.00;;;;;23.59;40.88;101062.66;5063100;28;45456;-73
2023/05/10 09:30:16;;;;;;;;;5.00;4.33;;;;;24.77;39.72;101061.47;5075372;27;45444;-73
2023/05/10 09:32:44;;;;;;;;;1.67;1.00;;;;;24.98;38.75;101062.84;5075265;28;45340;-73
2023/05/10 09:35:11;;;;;;;;;1.33;1.00;;;;;24.79;37.92;101054.34;5059459;28;45530;-72
2023/05/10 09:37:36;;;;;;;;;2.00;1.00;;;;;24.77;38.24;101043.69;5075995;28;45662;-72
2023/05/10 09:40:06;;;;;;;;;1.00;1.00;;;;;26.00;39.43;101047.97;5071231;28;46526;-74
2023/05/10 09:42:31;;;;;;;;;2.00;1.33;;;;;27.34;37.08;101042.41;5072539;28;45337;-72
2023/05/10 09:45:02;;;;;;;;;5.33;3.00;;;;;27.11;34.98;101035.03;5075967;28;45526;-71
2023/05/10 09:47:27;;;;;;;;;11.67;10.00;;;;;27.72;36.42;101031.34;5074242;28;45662;-72
2023/05/10 09:49:57;;;;;;;;;16.33;15.33;;;;;28.68;34.93;101040.50;5075666;27;45461;-72
2023/05/10 09:52:23;;;;;;;;;2.33;1.67;;;;;29.15;32.74;101043.19;5076407;28;45229;-71
2023/05/10 09:54:55;;;;;;;;;2.00;1.67;;;;;29.42;33.51;101040.31;5076188;28;45429;-71
2023/05/10 09:57:21;;;;;;;;;0.33;0.00;;;;;30.23;32.18;101049.50;5075384;28;45955;-72
2023/05/10 09:59:49;;;;;;;;;1.00;0.00;;;;;30.80;31.62;101055.06;5074862;27;45359;-71
2023/05/10 10:02:14;;;;;;;;;0.67;0.00;;;;;30.69;28.92;101042.06;5075410;28;45239;-71
2023/05/10 10:04:41;;;;;;;;;0.67;0.67;;;;;29.88;28.59;101041.16;5062967;28;45208;-72
2023/05/10 10:07:07;;;;;;;;;0.00;0.00;;;;;30.14;29.76;101039.13;5078186;28;45404;-71
2023/05/10 10:09:34;;;;;;;;;0.00;0.00;;;;;31.06;28.58;101051.16;5078413;28;46366;-73
2023/05/10 10:12:01;;;;;;;;;0.00;0.00;;;;;31.41;29.96;101043.16;5078909;28;45471;-73
2023/05/10 10:14:28;;;;;;;;;0.67;0.00;;;;;31.14;29.43;101058.91;5079539;28;45215;-72
2023/05/10 10:16:54;;;;;;;;;7.67;5.33;;;;;30.63;27.22;101042.34;5077805;28;45484;-72
2023/05/10 10:19:20;;;;;;;;;1.67;0.33;;;;;30.31;27.72;101043.81;5078186;27;45900;-74
2023/05/10 10:21:47;;;;;;;;;1.33;0.00;;;;;29.22;28.54;101038.44;5079344;28;45283;-72
2023/05/10 10:24:12;;;;;;;;;2.67;1.33;;;;;28.34;30.00;101049.78;5079351;28;45915;-74
2023/05/10 10:26:40;;;;;;;;;1.00;1.00;;;;;27.93;32.22;101046.75;5080234;28;45421;-72
2023/05/10 10:29:30;;;;;;;;;1.00;0.00;;;;;28.19;31.28;101063.75;5060170;28;45822;-74
2023/05/10 10:32:20;;;;;;;;;0.00;0.00;;;;;28.28;32.34;101065.25;5076616;28;45539;-74
2023/05/10 10:34:46;;;;;;;;;1.00;1.00;;;;;28.42;31.00;101046.81;5079604;28;45417;-74
2023/05/10 10:37:12;;;;;;;;;0.00;0.00;;;;;28.21;32.59;101061.00;5079770;28;45349;-72
2023/05/10 10:39:37;;;;;;;;;0.67;0.00;;;;;27.67;32.81;101054.75;5079028;27;46204;-74
2023/05/10 10:42:04;;;;;;;;;1.67;1.00;;;;;27.32;33.88;101068.41;5079567;28;45400;-72
2023/05/10 10:44:34;;;;;;;;;2.00;2.00;;;;;27.49;33.93;101064.28;5077788;28;45459;-72
2023/05/10 10:47:13;;;;;;;;;1.00;0.00;;;;;27.83;32.87;101053.31;5073783;28;45602;-74
2023/05/10 10:49:42;;;;;;;;;1.33;1.00;;;;;27.99;33.10;101048.31;5077250;28;45223;-71
2023/05/10 10:52:18;;;;;;;;;1.33;0.33;;;;;27.70;32.59;101043.94;5078644;28;45495;-74
2023/05/10 10:55:06;;;;;;;;;0.00;0.00;;;;;28.78;32.42;101043.72;5078584;28;45486;-73
2023/05/10 10:57:46;;;;;;;;;4.67;4.00;;;;;29.09;31.52;101047.94;5076268;28;45614;-72
2023/05/10 11:00:21;;;;;;;;;1.00;1.00;;;;;29.31;31.50;101045.28;5078454;28;45769;-74
2023/05/10 11:02:51;;;;;;;;;0.00;0.00;;;;;29.51;31.16;101033.72;5078402;28;45341;-73
2023/05/10 11:05:25;;;;;;;;;1.67;1.67;;;;;28.98;32.09;101053.72;5077428;27;45464;-73
2023/05/10 11:07:55;;;;;;;;;1.00;0.00;;;;;28.87;31.66;101035.31;5078440;28;45699;-74
2023/05/10 11:10:22;;;;;;;;;0.00;0.00;;;;;29.14;30.66;101021.72;5078063;28;46154;-73
2023/05/10 11:13:08;;;;;;;;;0.00;0.00;;;;;29.20;29.65;101031.38;5078497;28;45467;-72
2023/05/10 11:15:38;;;;;;;;;1.67;0.33;;;;;28.87;30.26;101026.34;5078201;28;45325;-73
2023/05/10 11:18:28;;;;;;;;;1.00;0.00;;;;;28.53;29.92;101035.69;5078284;28;45779;-74
2023/05/10 11:21:05;;;;;;;;;0.00;0.00;;;;;27.98;31.15;101019.72;5078111;27;46396;-74
2023/05/10 11:23:39;;;;;;;;;0.00;0.00;;;;;27.48;31.32;101038.41;5073809;27;45564;-73
2023/05/10 11:26:09;;;;;;;;;0.67;0.00;;;;;26.51;31.54;101034.09;5078420;28;45800;-72
2023/05/10 11:28:41;;;;;;;;;0.00;0.00;;;;;26.65;31.60;101023.03;5078424;28;45418;-73